sensor_id;sensor_type;location;lat;lon;timestamp;pressure;altitude;pressure_sealevel;temperature;humidity
64025;BME280;50266;57.446;26.936;2022-07-06T00:00:15;99581.67;;;12.34;94.21
64025;BME280;50266;57.446;26.936;2022-07-06T00:01:15;99585.75;;;12.36;94.47
64025;BME280;50266;57.446;26.936;2022-07-06T00:02:15;99582.39;;;12.31;94.65
64025;BME280;50266;57.446;26.936;2022-07-06T00:03:15;99583.48;;;12.31;94.64
64025;BME280;50266;57.446;26.936;2022-07-06T00:04:15;99583.62;;;12.23;94.97
64025;BME280;50266;57.446;26.936;2022-07-06T00:05:15;99581.52;;;12.2;95.32
64025;BME280;50266;57.446;26.936;2022-07-06T00:06:15;99581.63;;;12.19;95.38
64025;BME280;50266;57.446;26.936;2022-07-06T00:07:15;99578.48;;;12.15;95.59
64025;BME280;50266;57.446;26.936;2022-07-06T00:08:15;99577.05;;;12.17;95.5
64025;BME280;50266;57.446;26.936;2022-07-06T00:09:15;99577.03;;;12.12;95.39
64025;BME280;50266;57.446;26.936;2022-07-06T00:10:15;99574.19;;;12.16;94.99
64025;BME280;50266;57.446;26.936;2022-07-06T00:11:15;99575.33;;;12.11;95.35
64025;BME280;50266;57.446;26.936;2022-07-06T00:12:15;99578.05;;;12.15;95.47
64025;BME280;50266;57.446;26.936;2022-07-06T00:13:15;99575.95;;;12.18;95.17
64025;BME280;50266;57.446;26.936;2022-07-06T00:14:15;99571.47;;;12.14;95.05
64025;BME280;50266;57.446;26.936;2022-07-06T00:15:15;99570.83;;;12.09;94.88
64025;BME280;50266;57.446;26.936;2022-07-06T00:16:16;99572.62;;;12.08;95.08
64025;BME280;50266;57.446;26.936;2022-07-06T00:17:15;99570.53;;;12.1;95.15
64025;BME280;50266;57.446;26.936;2022-07-06T00:18:15;99571.05;;;12.08;95.32
64025;BME280;50266;57.446;26.936;2022-07-06T00:19:15;99569.73;;;12.11;95.36
64025;BME280;50266;57.446;26.936;2022-07-06T00:20:16;99567.27;;;12.13;95.25
64025;BME280;50266;57.446;26.936;2022-07-06T00:21:16;99567.91;;;12.15;95.4
64025;BME280;50266;57.446;26.936;2022-07-06T00:22:16;99566.28;;;12.14;95.34
64025;BME280;50266;57.446;26.936;2022-07-06T00:23:16;99568.71;;;12.08;95.52
64025;BME280;50266;57.446;26.936;2022-07-06T00:24:16;99570.75;;;12.07;95.74
64025;BME280;50266;57.446;26.936;2022-07-06T00:25:16;99566.94;;;12.02;95.74
64025;BME280;50266;57.446;26.936;2022-07-06T00:26:16;99571.64;;;12.1;95.7
64025;BME280;50266;57.446;26.936;2022-07-06T00:27:16;99569.73;;;12.11;95.4
64025;BME280;50266;57.446;26.936;2022-07-06T00:28:16;99568.48;;;12.06;95.54
64025;BME280;50266;57.446;26.936;2022-07-06T00:29:16;99565.72;;;12.12;95.43
64025;BME280;50266;57.446;26.936;2022-07-06T00:30:16;99564.78;;;12.12;95.4
64025;BME280;50266;57.446;26.936;2022-07-06T00:31:16;99564.41;;;12.03;95.37
64025;BME280;50266;57.446;26.936;2022-07-06T00:32:16;99562.03;;;12.0;95.7
64025;BME280;50266;57.446;26.936;2022-07-06T00:33:16;99563.62;;;11.92;95.66
64025;BME280;50266;57.446;26.936;2022-07-06T00:34:16;99559.12;;;11.98;95.92
64025;BME280;50266;57.446;26.936;2022-07-06T00:35:16;99560.22;;;12.08;95.73
64025;BME280;50266;57.446;26.936;2022-07-06T00:36:16;99562.74;;;12.03;95.56
64025;BME280;50266;57.446;26.936;2022-07-06T00:37:16;99562.34;;;11.97;95.71
64025;BME280;50266;57.446;26.936;2022-07-06T00:38:16;99558.27;;;11.89;95.85
64025;BME280;50266;57.446;26.936;2022-07-06T00:39:16;99560.19;;;11.89;96.06
64025;BME280;50266;57.446;26.936;2022-07-06T00:40:16;99555.28;;;11.91;96.01
64025;BME280;50266;57.446;26.936;2022-07-06T00:41:16;99559.13;;;11.87;96.16
64025;BME280;50266;57.446;26.936;2022-07-06T00:42:16;99557.12;;;11.87;96.02
64025;BME280;50266;57.446;26.936;2022-07-06T00:43:16;99558.97;;;11.87;96.13
64025;BME280;50266;57.446;26.936;2022-07-06T00:44:16;99557.56;;;11.9;96.02
64025;BME280;50266;57.446;26.936;2022-07-06T00:45:17;99562.81;;;11.88;95.96
64025;BME280;50266;57.446;26.936;2022-07-06T00:46:16;99560.19;;;11.82;96.02
64025;BME280;50266;57.446;26.936;2022-07-06T00:47:16;99558.83;;;11.81;95.94
64025;BME280;50266;57.446;26.936;2022-07-06T00:48:16;99560.77;;;11.8;96.21
64025;BME280;50266;57.446;26.936;2022-07-06T00:49:16;99553.75;;;11.76;96.2
64025;BME280;50266;57.446;26.936;2022-07-06T00:50:17;99554.63;;;11.8;96.4
64025;BME280;50266;57.446;26.936;2022-07-06T00:51:16;99555.34;;;11.99;96.83
64025;BME280;50266;57.446;26.936;2022-07-06T00:52:16;99552.78;;;12.0;96.08
64025;BME280;50266;57.446;26.936;2022-07-06T00:53:17;99553.54;;;11.91;95.86
64025;BME280;50266;57.446;26.936;2022-07-06T00:54:17;99554.61;;;12.0;96.24
64025;BME280;50266;57.446;26.936;2022-07-06T00:55:18;99552.09;;;11.99;95.81
64025;BME280;50266;57.446;26.936;2022-07-06T00:56:17;99556.8;;;11.94;95.82
64025;BME280;50266;57.446;26.936;2022-07-06T00:57:17;99555.5;;;11.93;96.16
64025;BME280;50266;57.446;26.936;2022-07-06T00:58:17;99551.95;;;11.85;96.3
64025;BME280;50266;57.446;26.936;2022-07-06T00:59:17;99553.04;;;11.91;96.7
64025;BME280;50266;57.446;26.936;2022-07-06T01:00:18;99551.91;;;11.86;96.52
64025;BME280;50266;57.446;26.936;2022-07-06T01:01:17;99552.88;;;11.8;97.0
64025;BME280;50266;57.446;26.936;2022-07-06T01:02:17;99552.59;;;11.79;97.09
64025;BME280;50266;57.446;26.936;2022-07-06T01:03:17;99553.83;;;11.77;97.29
64025;BME280;50266;57.446;26.936;2022-07-06T01:04:17;99552.88;;;11.85;97.41
64025;BME280;50266;57.446;26.936;2022-07-06T01:05:17;99553.63;;;11.85;97.26
64025;BME280;50266;57.446;26.936;2022-07-06T01:06:17;99556.44;;;11.89;96.99
64025;BME280;50266;57.446;26.936;2022-07-06T01:07:17;99551.81;;;11.96;97.0
64025;BME280;50266;57.446;26.936;2022-07-06T01:08:17;99555.78;;;12.0;96.99
64025;BME280;50266;57.446;26.936;2022-07-06T01:09:17;99552.21;;;12.0;96.67
64025;BME280;50266;57.446;26.936;2022-07-06T01:10:17;99556.12;;;12.02;96.73
64025;BME280;50266;57.446;26.936;2022-07-06T01:11:18;99554.05;;;11.9;96.91
64025;BME280;50266;57.446;26.936;2022-07-06T01:12:17;99553.58;;;11.86;96.98
64025;BME280;50266;57.446;26.936;2022-07-06T01:13:17;99553.09;;;11.83;97.07
64025;BME280;50266;57.446;26.936;2022-07-06T01:14:20;99553.62;;;11.82;97.26
64025;BME280;50266;57.446;26.936;2022-07-06T01:15:18;99552.51;;;11.86;97.28
64025;BME280;50266;57.446;26.936;2022-07-06T01:16:17;99552.19;;;11.97;97.16
64025;BME280;50266;57.446;26.936;2022-07-06T01:17:17;99550.89;;;11.96;96.95
64025;BME280;50266;57.446;26.936;2022-07-06T01:18:17;99546.96;;;11.93;97.11
64025;BME280;50266;57.446;26.936;2022-07-06T01:19:17;99550.07;;;11.94;97.2
64025;BME280;50266;57.446;26.936;2022-07-06T01:20:21;99544.48;;;11.96;97.09
64025;BME280;50266;57.446;26.936;2022-07-06T01:21:17;99546.83;;;11.98;96.95
64025;BME280;50266;57.446;26.936;2022-07-06T01:22:17;99541.58;;;12.0;96.7
64025;BME280;50266;57.446;26.936;2022-07-06T01:23:17;99542.03;;;11.97;96.5
64025;BME280;50266;57.446;26.936;2022-07-06T01:24:17;99544.75;;;11.83;96.75
64025;BME280;50266;57.446;26.936;2022-07-06T01:25:18;99544.89;;;11.75;97.36
64025;BME280;50266;57.446;26.936;2022-07-06T01:26:18;99542.94;;;11.76;97.91
64025;BME280;50266;57.446;26.936;2022-07-06T01:27:17;99538.7;;;11.88;98.36
64025;BME280;50266;57.446;26.936;2022-07-06T01:28:17;99540.33;;;11.9;97.98
64025;BME280;50266;57.446;26.936;2022-07-06T01:29:18;99536.17;;;11.86;97.88
64025;BME280;50266;57.446;26.936;2022-07-06T01:30:18;99539.19;;;11.93;97.76
64025;BME280;50266;57.446;26.936;2022-07-06T01:31:19;99539.55;;;11.95;97.56
64025;BME280;50266;57.446;26.936;2022-07-06T01:32:18;99536.42;;;11.99;97.44
64025;BME280;50266;57.446;26.936;2022-07-06T01:33:18;99538.67;;;12.1;97.23
64025;BME280;50266;57.446;26.936;2022-07-06T01:34:18;99537.43;;;12.08;96.89
64025;BME280;50266;57.446;26.936;2022-07-06T01:35:18;99536.55;;;12.02;96.63
64025;BME280;50266;57.446;26.936;2022-07-06T01:36:18;99538.75;;;11.94;96.55
64025;BME280;50266;57.446;26.936;2022-07-06T01:37:18;99539.39;;;11.94;96.67
64025;BME280;50266;57.446;26.936;2022-07-06T01:38:19;99538.45;;;11.95;96.8
64025;BME280;50266;57.446;26.936;2022-07-06T01:39:18;99541.5;;;12.01;97.06
64025;BME280;50266;57.446;26.936;2022-07-06T01:40:18;99539.3;;;12.02;96.97
64025;BME280;50266;57.446;26.936;2022-07-06T01:41:18;99544.34;;;12.05;96.8
64025;BME280;50266;57.446;26.936;2022-07-06T01:42:18;99547.8;;;11.96;96.52
64025;BME280;50266;57.446;26.936;2022-07-06T01:43:18;99545.01;;;11.9;96.76
64025;BME280;50266;57.446;26.936;2022-07-06T01:44:18;99543.95;;;11.97;96.88
64025;BME280;50266;57.446;26.936;2022-07-06T01:45:18;99542.67;;;11.92;96.81
64025;BME280;50266;57.446;26.936;2022-07-06T01:46:18;99543.52;;;11.81;97.1
64025;BME280;50266;57.446;26.936;2022-07-06T01:47:18;99545.55;;;11.89;97.31
64025;BME280;50266;57.446;26.936;2022-07-06T01:48:18;99545.66;;;11.9;97.31
64025;BME280;50266;57.446;26.936;2022-07-06T01:49:18;99544.96;;;11.85;97.17
64025;BME280;50266;57.446;26.936;2022-07-06T01:50:18;99542.73;;;11.82;97.25
64025;BME280;50266;57.446;26.936;2022-07-06T01:51:18;99541.38;;;11.79;97.56
64025;BME280;50266;57.446;26.936;2022-07-06T01:52:18;99544.96;;;11.8;97.78
64025;BME280;50266;57.446;26.936;2022-07-06T01:53:18;99544.09;;;11.81;97.86
64025;BME280;50266;57.446;26.936;2022-07-06T01:54:18;99541.6;;;11.77;98.09
64025;BME280;50266;57.446;26.936;2022-07-06T01:55:18;99539.66;;;11.8;98.0
64025;BME280;50266;57.446;26.936;2022-07-06T01:56:19;99541.92;;;11.83;98.11
64025;BME280;50266;57.446;26.936;2022-07-06T01:57:18;99537.88;;;11.81;98.09
64025;BME280;50266;57.446;26.936;2022-07-06T01:58:18;99536.98;;;11.78;98.28
64025;BME280;50266;57.446;26.936;2022-07-06T02:00:19;99536.91;;;11.7;98.45
64025;BME280;50266;57.446;26.936;2022-07-06T02:01:19;99535.17;;;11.59;98.68
64025;BME280;50266;57.446;26.936;2022-07-06T02:02:19;99534.24;;;11.68;98.63
64025;BME280;50266;57.446;26.936;2022-07-06T02:03:19;99536.95;;;11.76;98.58
64025;BME280;50266;57.446;26.936;2022-07-06T02:04:19;99539.98;;;11.8;98.43
64025;BME280;50266;57.446;26.936;2022-07-06T02:05:19;99536.95;;;11.76;98.44
64025;BME280;50266;57.446;26.936;2022-07-06T02:06:19;99537.11;;;11.76;98.57
64025;BME280;50266;57.446;26.936;2022-07-06T02:07:19;99536.42;;;11.75;98.77
64025;BME280;50266;57.446;26.936;2022-07-06T02:08:19;99541.02;;;11.75;98.95
64025;BME280;50266;57.446;26.936;2022-07-06T02:09:19;99539.6;;;11.73;98.92
64025;BME280;50266;57.446;26.936;2022-07-06T02:10:19;99541.39;;;11.8;98.83
64025;BME280;50266;57.446;26.936;2022-07-06T02:11:19;99539.88;;;11.87;98.42
64025;BME280;50266;57.446;26.936;2022-07-06T02:12:19;99539.18;;;11.83;98.02
64025;BME280;50266;57.446;26.936;2022-07-06T02:13:19;99540.98;;;11.85;97.91
64025;BME280;50266;57.446;26.936;2022-07-06T02:14:19;99539.19;;;11.75;98.36
64025;BME280;50266;57.446;26.936;2022-07-06T02:15:19;99539.12;;;11.7;98.44
64025;BME280;50266;57.446;26.936;2022-07-06T02:16:19;99541.45;;;11.74;98.67
64025;BME280;50266;57.446;26.936;2022-07-06T02:17:19;99539.27;;;11.86;98.55
64025;BME280;50266;57.446;26.936;2022-07-06T02:18:19;99541.59;;;11.92;98.27
64025;BME280;50266;57.446;26.936;2022-07-06T02:19:19;99541.23;;;11.98;97.99
64025;BME280;50266;57.446;26.936;2022-07-06T02:20:19;99540.8;;;11.97;97.53
64025;BME280;50266;57.446;26.936;2022-07-06T02:21:19;99543.06;;;12.04;97.46
64025;BME280;50266;57.446;26.936;2022-07-06T02:22:19;99542.67;;;12.05;97.29
64025;BME280;50266;57.446;26.936;2022-07-06T02:23:19;99542.2;;;12.04;97.41
64025;BME280;50266;57.446;26.936;2022-07-06T02:24:19;99540.4;;;12.04;97.5
64025;BME280;50266;57.446;26.936;2022-07-06T02:25:19;99546.06;;;12.14;97.52
64025;BME280;50266;57.446;26.936;2022-07-06T02:26:19;99541.55;;;12.07;97.46
64025;BME280;50266;57.446;26.936;2022-07-06T02:27:19;99543.52;;;12.06;97.62
64025;BME280;50266;57.446;26.936;2022-07-06T02:28:19;99543.34;;;11.99;97.68
64025;BME280;50266;57.446;26.936;2022-07-06T02:29:19;99544.67;;;12.03;97.72
64025;BME280;50266;57.446;26.936;2022-07-06T02:30:20;99544.83;;;12.17;97.69
64025;BME280;50266;57.446;26.936;2022-07-06T02:31:19;99545.69;;;12.13;97.35
64025;BME280;50266;57.446;26.936;2022-07-06T02:32:19;99546.17;;;12.31;96.98
64025;BME280;50266;57.446;26.936;2022-07-06T02:33:20;99548.55;;;12.23;96.92
64025;BME280;50266;57.446;26.936;2022-07-06T02:34:20;99547.36;;;12.2;97.08
64025;BME280;50266;57.446;26.936;2022-07-06T02:35:20;99545.55;;;12.14;98.03
64025;BME280;50266;57.446;26.936;2022-07-06T02:36:20;99545.84;;;12.15;98.21
64025;BME280;50266;57.446;26.936;2022-07-06T02:37:20;99542.55;;;12.11;98.46
64025;BME280;50266;57.446;26.936;2022-07-06T02:38:20;99541.65;;;12.23;99.16
64025;BME280;50266;57.446;26.936;2022-07-06T02:39:20;99541.73;;;12.35;98.31
64025;BME280;50266;57.446;26.936;2022-07-06T02:40:20;99546.0;;;12.45;97.18
64025;BME280;50266;57.446;26.936;2022-07-06T02:41:20;99541.37;;;12.43;96.46
64025;BME280;50266;57.446;26.936;2022-07-06T02:42:20;99542.41;;;12.52;96.05
64025;BME280;50266;57.446;26.936;2022-07-06T02:43:20;99546.2;;;12.49;95.73
64025;BME280;50266;57.446;26.936;2022-07-06T02:44:20;99542.15;;;12.42;95.82
64025;BME280;50266;57.446;26.936;2022-07-06T02:45:20;99548.36;;;12.53;95.77
64025;BME280;50266;57.446;26.936;2022-07-06T02:46:20;99548.06;;;12.47;96.1
64025;BME280;50266;57.446;26.936;2022-07-06T02:47:20;99547.98;;;12.47;96.55
64025;BME280;50266;57.446;26.936;2022-07-06T02:48:20;99551.55;;;12.47;96.53
64025;BME280;50266;57.446;26.936;2022-07-06T02:49:20;99553.15;;;12.5;96.59
64025;BME280;50266;57.446;26.936;2022-07-06T02:50:20;99555.85;;;12.6;96.67
64025;BME280;50266;57.446;26.936;2022-07-06T02:51:20;99558.91;;;12.69;96.69
64025;BME280;50266;57.446;26.936;2022-07-06T02:52:20;99558.42;;;12.79;96.41
64025;BME280;50266;57.446;26.936;2022-07-06T02:53:20;99555.01;;;12.81;95.95
64025;BME280;50266;57.446;26.936;2022-07-06T02:54:20;99558.67;;;12.86;95.24
64025;BME280;50266;57.446;26.936;2022-07-06T02:55:20;99557.44;;;12.92;94.4
64025;BME280;50266;57.446;26.936;2022-07-06T02:56:20;99556.31;;;13.01;94.34
64025;BME280;50266;57.446;26.936;2022-07-06T02:57:20;99557.98;;;13.05;94.31
64025;BME280;50266;57.446;26.936;2022-07-06T02:58:20;99559.19;;;12.99;94.16
64025;BME280;50266;57.446;26.936;2022-07-06T02:59:20;99560.7;;;12.97;94.23
64025;BME280;50266;57.446;26.936;2022-07-06T03:00:20;99559.8;;;13.0;94.18
64025;BME280;50266;57.446;26.936;2022-07-06T03:01:20;99561.41;;;13.05;93.89
64025;BME280;50266;57.446;26.936;2022-07-06T03:02:20;99562.35;;;13.15;93.42
64025;BME280;50266;57.446;26.936;2022-07-06T03:03:20;99564.89;;;13.2;93.05
64025;BME280;50266;57.446;26.936;2022-07-06T03:04:20;99563.98;;;13.22;92.02
64025;BME280;50266;57.446;26.936;2022-07-06T03:05:21;99564.0;;;13.23;91.21
64025;BME280;50266;57.446;26.936;2022-07-06T03:06:21;99563.44;;;13.29;91.17
64025;BME280;50266;57.446;26.936;2022-07-06T03:07:21;99564.89;;;13.35;90.74
64025;BME280;50266;57.446;26.936;2022-07-06T03:08:21;99562.78;;;13.4;90.37
64025;BME280;50266;57.446;26.936;2022-07-06T03:09:21;99563.98;;;13.43;89.86
64025;BME280;50266;57.446;26.936;2022-07-06T03:10:21;99562.83;;;13.49;89.44
64025;BME280;50266;57.446;26.936;2022-07-06T03:11:21;99556.12;;;13.51;89.33
64025;BME280;50266;57.446;26.936;2022-07-06T03:12:21;99556.11;;;13.51;89.09
64025;BME280;50266;57.446;26.936;2022-07-06T03:13:21;99556.29;;;13.56;88.84
64025;BME280;50266;57.446;26.936;2022-07-06T03:14:21;99558.75;;;13.58;88.73
64025;BME280;50266;57.446;26.936;2022-07-06T03:15:21;99556.07;;;13.55;89.15
64025;BME280;50266;57.446;26.936;2022-07-06T03:16:21;99561.38;;;13.56;89.77
64025;BME280;50266;57.446;26.936;2022-07-06T03:17:21;99551.77;;;13.64;89.37
64025;BME280;50266;57.446;26.936;2022-07-06T03:18:21;99555.91;;;13.68;89.38
64025;BME280;50266;57.446;26.936;2022-07-06T03:19:21;99558.63;;;13.73;89.11
64025;BME280;50266;57.446;26.936;2022-07-06T03:20:21;99558.44;;;13.78;88.98
64025;BME280;50266;57.446;26.936;2022-07-06T03:21:21;99560.43;;;13.77;88.96
64025;BME280;50266;57.446;26.936;2022-07-06T03:22:21;99558.3;;;13.81;88.79
64025;BME280;50266;57.446;26.936;2022-07-06T03:23:21;99555.51;;;13.85;87.85
64025;BME280;50266;57.446;26.936;2022-07-06T03:24:21;99558.85;;;13.85;88.41
64025;BME280;50266;57.446;26.936;2022-07-06T03:25:21;99558.51;;;13.9;89.33
64025;BME280;50266;57.446;26.936;2022-07-06T03:26:21;99561.02;;;13.88;89.55
64025;BME280;50266;57.446;26.936;2022-07-06T03:27:21;99559.14;;;13.87;89.38
64025;BME280;50266;57.446;26.936;2022-07-06T03:28:21;99562.24;;;13.93;89.27
64025;BME280;50266;57.446;26.936;2022-07-06T03:29:21;99559.33;;;13.99;88.05
64025;BME280;50266;57.446;26.936;2022-07-06T03:30:21;99559.18;;;14.0;88.14
64025;BME280;50266;57.446;26.936;2022-07-06T03:31:21;99554.69;;;14.06;88.36
64025;BME280;50266;57.446;26.936;2022-07-06T03:32:21;99555.27;;;14.06;87.34
64025;BME280;50266;57.446;26.936;2022-07-06T03:33:21;99559.77;;;14.11;88.38
64025;BME280;50266;57.446;26.936;2022-07-06T03:34:21;99561.47;;;14.12;88.01
64025;BME280;50266;57.446;26.936;2022-07-06T03:35:22;99561.53;;;14.15;87.88
64025;BME280;50266;57.446;26.936;2022-07-06T03:36:21;99562.94;;;14.15;88.28
64025;BME280;50266;57.446;26.936;2022-07-06T03:37:21;99564.12;;;14.21;87.98
64025;BME280;50266;57.446;26.936;2022-07-06T03:38:22;99563.56;;;14.16;87.15
64025;BME280;50266;57.446;26.936;2022-07-06T03:39:22;99572.0;;;14.19;87.18
64025;BME280;50266;57.446;26.936;2022-07-06T03:40:22;99570.24;;;14.27;87.13
64025;BME280;50266;57.446;26.936;2022-07-06T03:41:22;99572.77;;;14.25;87.27
64025;BME280;50266;57.446;26.936;2022-07-06T03:42:22;99569.38;;;14.23;86.98
64025;BME280;50266;57.446;26.936;2022-07-06T03:43:22;99576.08;;;14.26;87.02
64025;BME280;50266;57.446;26.936;2022-07-06T03:44:22;99575.72;;;14.23;86.33
64025;BME280;50266;57.446;26.936;2022-07-06T03:45:22;99574.08;;;14.24;86.6
64025;BME280;50266;57.446;26.936;2022-07-06T03:46:22;99572.77;;;14.25;86.65
64025;BME280;50266;57.446;26.936;2022-07-06T03:47:22;99572.97;;;14.28;86.68
64025;BME280;50266;57.446;26.936;2022-07-06T03:48:22;99567.49;;;14.3;87.31
64025;BME280;50266;57.446;26.936;2022-07-06T03:49:22;99571.06;;;14.32;87.25
64025;BME280;50266;57.446;26.936;2022-07-06T03:50:22;99566.88;;;14.32;86.47
64025;BME280;50266;57.446;26.936;2022-07-06T03:51:22;99568.17;;;14.4;85.77
64025;BME280;50266;57.446;26.936;2022-07-06T03:52:22;99567.52;;;14.48;85.94
64025;BME280;50266;57.446;26.936;2022-07-06T03:53:22;99573.83;;;14.43;85.49
64025;BME280;50266;57.446;26.936;2022-07-06T03:54:22;99572.62;;;14.51;85.8
64025;BME280;50266;57.446;26.936;2022-07-06T03:55:22;99571.22;;;14.54;85.65
64025;BME280;50266;57.446;26.936;2022-07-06T03:56:22;99573.12;;;14.45;83.18
64025;BME280;50266;57.446;26.936;2022-07-06T03:57:22;99569.95;;;14.51;84.04
64025;BME280;50266;57.446;26.936;2022-07-06T03:58:22;99565.94;;;14.58;83.77
64025;BME280;50266;57.446;26.936;2022-07-06T03:59:22;99560.28;;;14.59;84.18
64025;BME280;50266;57.446;26.936;2022-07-06T04:00:22;99553.45;;;14.57;84.05
64025;BME280;50266;57.446;26.936;2022-07-06T04:01:22;99553.06;;;14.67;85.9
64025;BME280;50266;57.446;26.936;2022-07-06T04:02:22;99556.62;;;14.74;86.11
64025;BME280;50266;57.446;26.936;2022-07-06T04:03:22;99557.91;;;14.61;82.98
64025;BME280;50266;57.446;26.936;2022-07-06T04:04:22;99556.37;;;14.63;82.71
64025;BME280;50266;57.446;26.936;2022-07-06T04:05:22;99560.73;;;14.66;82.61
64025;BME280;50266;57.446;26.936;2022-07-06T04:06:22;99558.41;;;14.7;82.48
64025;BME280;50266;57.446;26.936;2022-07-06T04:07:22;99552.61;;;14.66;82.69
64025;BME280;50266;57.446;26.936;2022-07-06T04:08:22;99554.8;;;14.89;83.29
64025;BME280;50266;57.446;26.936;2022-07-06T04:09:22;99555.61;;;14.91;83.02
64025;BME280;50266;57.446;26.936;2022-07-06T04:10:22;99550.94;;;14.91;82.67
64025;BME280;50266;57.446;26.936;2022-07-06T04:11:22;99548.85;;;14.94;82.48
64025;BME280;50266;57.446;26.936;2022-07-06T04:12:22;99560.02;;;14.87;81.09
64025;BME280;50266;57.446;26.936;2022-07-06T04:13:23;99554.96;;;14.85;80.45
64025;BME280;50266;57.446;26.936;2022-07-06T04:14:23;99555.36;;;14.91;80.12
64025;BME280;50266;57.446;26.936;2022-07-06T04:15:23;99556.47;;;15.08;80.88
64025;BME280;50266;57.446;26.936;2022-07-06T04:16:23;99554.09;;;15.13;81.63
64025;BME280;50266;57.446;26.936;2022-07-06T04:17:23;99561.42;;;14.92;79.69
64025;BME280;50266;57.446;26.936;2022-07-06T04:18:24;99556.94;;;14.94;78.8
64025;BME280;50266;57.446;26.936;2022-07-06T04:19:23;99556.14;;;15.09;79.79
64025;BME280;50266;57.446;26.936;2022-07-06T04:20:23;99557.83;;;15.06;80.17
64025;BME280;50266;57.446;26.936;2022-07-06T04:21:23;99559.72;;;15.05;80.83
64025;BME280;50266;57.446;26.936;2022-07-06T04:22:23;99562.5;;;15.0;80.1
64025;BME280;50266;57.446;26.936;2022-07-06T04:23:23;99564.27;;;14.96;78.65
64025;BME280;50266;57.446;26.936;2022-07-06T04:24:23;99560.44;;;15.13;80.67
64025;BME280;50266;57.446;26.936;2022-07-06T04:25:23;99558.83;;;15.12;80.21
64025;BME280;50266;57.446;26.936;2022-07-06T04:26:23;99562.54;;;14.93;78.25
64025;BME280;50266;57.446;26.936;2022-07-06T04:27:23;99561.47;;;14.94;79.52
64025;BME280;50266;57.446;26.936;2022-07-06T04:28:23;99559.72;;;14.99;80.66
64025;BME280;50266;57.446;26.936;2022-07-06T04:29:23;99559.84;;;15.07;80.16
64025;BME280;50266;57.446;26.936;2022-07-06T04:30:23;99561.09;;;15.06;79.58
64025;BME280;50266;57.446;26.936;2022-07-06T04:31:23;99555.23;;;15.06;79.61
64025;BME280;50266;57.446;26.936;2022-07-06T04:32:23;99555.11;;;15.14;81.09
64025;BME280;50266;57.446;26.936;2022-07-06T04:33:23;99555.16;;;15.27;80.12
64025;BME280;50266;57.446;26.936;2022-07-06T04:34:23;99557.19;;;15.17;79.51
64025;BME280;50266;57.446;26.936;2022-07-06T04:35:23;99559.16;;;15.12;79.69
64025;BME280;50266;57.446;26.936;2022-07-06T04:36:23;99558.58;;;15.03;79.13
64025;BME280;50266;57.446;26.936;2022-07-06T04:37:23;99556.95;;;14.99;78.95
64025;BME280;50266;57.446;26.936;2022-07-06T04:38:24;99552.33;;;14.97;78.98
64025;BME280;50266;57.446;26.936;2022-07-06T04:39:23;99553.59;;;14.93;79.38
64025;BME280;50266;57.446;26.936;2022-07-06T04:40:23;99552.97;;;14.92;79.05
64025;BME280;50266;57.446;26.936;2022-07-06T04:41:23;99554.08;;;14.97;79.04
64025;BME280;50266;57.446;26.936;2022-07-06T04:42:24;99548.76;;;14.99;79.01
64025;BME280;50266;57.446;26.936;2022-07-06T04:43:23;99550.01;;;14.94;78.34
64025;BME280;50266;57.446;26.936;2022-07-06T04:44:23;99549.87;;;14.95;79.2
64025;BME280;50266;57.446;26.936;2022-07-06T04:45:23;99550.51;;;15.11;80.11
64025;BME280;50266;57.446;26.936;2022-07-06T04:46:23;99547.08;;;15.05;79.02
64025;BME280;50266;57.446;26.936;2022-07-06T04:47:23;99553.67;;;14.93;78.04
64025;BME280;50266;57.446;26.936;2022-07-06T04:48:24;99550.42;;;14.98;79.15
64025;BME280;50266;57.446;26.936;2022-07-06T04:49:24;99552.36;;;15.02;79.69
64025;BME280;50266;57.446;26.936;2022-07-06T04:50:24;99554.91;;;15.06;80.63
64025;BME280;50266;57.446;26.936;2022-07-06T04:51:24;99557.06;;;15.26;81.11
64025;BME280;50266;57.446;26.936;2022-07-06T04:52:24;99555.44;;;15.18;79.56
64025;BME280;50266;57.446;26.936;2022-07-06T04:53:24;99551.15;;;15.07;79.62
64025;BME280;50266;57.446;26.936;2022-07-06T04:54:24;99548.81;;;15.1;80.75
64025;BME280;50266;57.446;26.936;2022-07-06T04:55:24;99550.66;;;15.27;80.91
64025;BME280;50266;57.446;26.936;2022-07-06T04:56:24;99545.59;;;15.29;81.85
64025;BME280;50266;57.446;26.936;2022-07-06T04:57:24;99544.5;;;15.32;81.69
64025;BME280;50266;57.446;26.936;2022-07-06T04:58:24;99547.51;;;15.32;81.54
64025;BME280;50266;57.446;26.936;2022-07-06T04:59:24;99550.08;;;15.39;81.2
64025;BME280;50266;57.446;26.936;2022-07-06T05:00:24;99549.28;;;15.54;80.9
64025;BME280;50266;57.446;26.936;2022-07-06T05:01:24;99555.69;;;15.35;79.62
64025;BME280;50266;57.446;26.936;2022-07-06T05:02:24;99556.8;;;15.26;80.12
64025;BME280;50266;57.446;26.936;2022-07-06T05:03:24;99558.14;;;15.36;80.86
64025;BME280;50266;57.446;26.936;2022-07-06T05:04:24;99557.16;;;15.44;79.89
64025;BME280;50266;57.446;26.936;2022-07-06T05:05:24;99557.09;;;15.24;78.75
64025;BME280;50266;57.446;26.936;2022-07-06T05:06:24;99549.3;;;15.37;79.85
64025;BME280;50266;57.446;26.936;2022-07-06T05:07:24;99550.27;;;15.4;79.12
64025;BME280;50266;57.446;26.936;2022-07-06T05:08:24;99553.29;;;15.51;79.52
64025;BME280;50266;57.446;26.936;2022-07-06T05:09:24;99555.36;;;15.6;79.02
64025;BME280;50266;57.446;26.936;2022-07-06T05:10:24;99561.02;;;15.52;78.69
64025;BME280;50266;57.446;26.936;2022-07-06T05:11:24;99556.88;;;15.5;78.74
64025;BME280;50266;57.446;26.936;2022-07-06T05:12:24;99555.89;;;15.64;79.43
64025;BME280;50266;57.446;26.936;2022-07-06T05:13:24;99556.28;;;15.32;76.57
64025;BME280;50266;57.446;26.936;2022-07-06T05:14:24;99553.56;;;15.33;77.59
64025;BME280;50266;57.446;26.936;2022-07-06T05:15:24;99554.8;;;15.36;76.94